Accueil
METAR-TAF:

METAR-TAF

Aéroports :

Samsun, Turquie

latitude: 41-15-15N, longitude: 036-34-03E, altitude: 5 m

Observation

Le bulletin a été fait il y a 50 minutes, à 13:50 UTC
Vent 5 kt de sud-est
Température 12°C
Humidité 62%
Pression 1008 hPa
Visibilité 10 km ou plus
Quelques nuages à une hauteur de 3600 ft
Nuages épars à une hauteur de 10000 ft
Nuages fragmentés à une hauteur de 20000 ft

METAR: LTFH 121350Z 14005KT 9999 FEW036 SCT100 BKN200 12/05 Q1008 NOSIG

Heure: 17:40 (14:40 UTC)

Prévision

Le bulletin a été fait il y a 1 heure et 0 minutes, à 13:40 UTC
Prévision valable du 12 à 15 UTC au 12 à 24 UTC
Vent 2 kt de direction variable
Visibilité 10 km ou plus
Quelques nuages à une hauteur de 3600 ft
Nuages épars à une hauteur de 10000 ft
Nuages fragmentés à une hauteur de 20000 ft

TAF: LTFH 121340Z 1215/1224 VRB02KT 9999 FEW036 SCT100 BKN200

Observations et prévisions météorologiques de plus de 4000 aéroports (messages METAR et TAF).

Les stations disponibles sont représentées par des disques jaunes et rouges sur la carte.

Passer la souris dessus pour voir le nom de la station.

Cliquer dessus pour voir les observations et prévisions météorologiques.

Pour changer de carte: cliquez sur les boutons verts avec une croix noire pour zoomer, sur le bouton vert avec un tiret pour effectuer un zoom arrière, ou sur les flèches vertes pour les cartes adjacentes.


METAR-TAF: